VIAG/AGR METAR and TAF weather

Enter ICAO airport designator
Station Type Date Time Source
VIAG METAR 2021/02/25 10:30 UTC NOAA

VIAG 251030Z 26008KT 9999 SKC 32/10 Q1008 NOSIG


Station Type Date Time Source
VIAG Decoded METAR 2021/02/25 10:30 UTC NOAA

Agra, India (VIAG) 27-09N 077-58E 169M
Feb 25, 2021 - 05:30 AM EST / 2021.02.25 1030 UTC
Wind: from the W (260 degrees) at 9 MPH (8 KT):0
Visibility: greater than 7 mile(s):0
Sky conditions: clear
Temperature: 89 F (32 C)
Dew Point: 50 F (10 C)
Relative Humidity: 25%
Pressure (altimeter): 29.77 in. Hg (1008 hPa)
ob: VIAG 251030Z 26008KT 9999 SKC 32/10 Q1008 NOSIG
cycle: 10

Station Type Date Time Source
VIAG TAF 2021/02/27 18:30 UTC NOAA

TAF VIAG 271530Z 2718/2806 VRB02KT 6000 FEW040 SCT100

Example: see airport list